Time;durP1;ratioP1;P1;durP2;ratioP2;P2;SDS_P1;SDS_P2;PMS_P1;PMS_P2;Temp;Humidity;BMP_temperature;BMP_pressure;BME280_temperature;BME280_humidity;BME280_pressure;Samples;Min_cycle;Max_cycle;Signal;HPM_P1;HPM_P2
2022/01/10 00:00:18;;;;;;;9.33;6.87;;;7.30;99.70;;;7.25;72.05;93414.47;5073413;28;20482;-58
2022/01/10 00:02:48;;;;;;;8.60;5.03;;;7.30;99.70;;;7.25;71.55;93417.06;5080225;28;21996;-58
2022/01/10 00:05:17;;;;;;;8.00;5.33;;;7.30;99.70;;;7.23;71.44;93416.41;5079249;28;20500;-58
2022/01/10 00:07:44;;;;;;;12.10;6.30;;;7.30;99.30;;;7.21;71.96;93420.16;5080642;28;20454;-59
2022/01/10 00:10:11;;;;;;;11.40;5.70;;;7.30;99.90;;;7.20;72.58;93418.50;5080122;28;20482;-58
2022/01/10 00:12:39;;;;;;;9.80;5.53;;;7.30;99.90;;;7.21;72.29;93420.16;5079097;28;20463;-62
2022/01/10 00:15:09;;;;;;;5.90;5.30;;;7.30;99.90;;;7.24;72.42;93419.84;5078309;28;20466;-58
2022/01/10 00:17:38;;;;;;;8.90;5.60;;;7.30;99.90;;;7.25;72.44;93419.69;5081944;28;20442;-62
2022/01/10 00:20:07;;;;;;;9.30;6.50;;;7.30;99.90;;;7.26;72.45;93420.50;5081643;28;20970;-60
2022/01/10 00:22:34;;;;;;;10.53;6.20;;;7.30;99.90;;;7.26;73.06;93418.69;5077637;28;20527;-58
2022/01/10 00:25:02;;;;;;;7.53;6.10;;;7.40;99.90;;;7.28;72.25;93416.78;5078934;28;20485;-58
2022/01/10 00:27:29;;;;;;;10.77;5.37;;;7.40;99.90;;;7.28;73.00;93421.16;5078979;28;20450;-62
2022/01/10 00:29:56;;;;;;;10.40;6.40;;;7.40;99.90;;;7.30;72.49;93424.47;5075715;28;21016;-62
2022/01/10 00:32:25;;;;;;;9.97;6.00;;;7.40;99.90;;;7.30;72.68;93424.47;5078262;28;20541;-58
2022/01/10 00:34:52;;;;;;;11.90;6.53;;;7.40;99.90;;;7.30;72.46;93421.84;5075994;28;20458;-61
2022/01/10 00:37:20;;;;;;;11.47;7.30;;;7.40;99.90;;;7.31;72.73;93420.84;5074815;28;20451;-62
2022/01/10 00:39:48;;;;;;;11.40;6.77;;;7.40;99.90;;;7.30;73.17;93419.22;5080461;28;20455;-64
2022/01/10 00:42:16;;;;;;;14.70;6.20;;;7.40;99.90;;;7.32;73.53;93419.88;5075952;28;20487;-63
2022/01/10 00:44:49;;;;;;;14.10;5.60;;;7.40;99.90;;;7.33;72.72;93421.53;5074847;28;20458;-59
2022/01/10 00:47:17;;;;;;;7.03;5.60;;;7.40;99.90;;;7.33;72.84;93417.09;5076827;28;20492;-59
2022/01/10 00:49:46;;;;;;;8.00;6.20;;;7.40;99.90;;;7.35;72.27;93411.72;5074294;28;20443;-59
2022/01/10 00:52:13;;;;;;;6.40;5.10;;;7.40;99.90;;;7.34;73.18;93415.31;5077566;28;20462;-63
2022/01/10 00:54:40;;;;;;;7.27;4.73;;;7.40;99.90;;;7.33;73.58;93418.91;5074495;28;20443;-62
2022/01/10 00:57:08;;;;;;;9.90;5.73;;;7.40;99.90;;;7.32;73.15;93412.84;5074847;28;20686;-61
2022/01/10 00:59:35;;;;;;;10.30;5.83;;;7.40;99.90;;;7.30;73.76;93416.63;5078868;28;20458;-61
2022/01/10 01:02:02;;;;;;;9.70;6.90;;;7.40;99.90;;;7.27;73.21;93414.31;5078170;28;20596;-58
2022/01/10 01:04:29;;;;;;;9.30;5.57;;;7.40;99.90;;;7.25;73.51;93416.25;5076758;28;20438;-58
2022/01/10 01:06:58;;;;;;;10.97;6.83;;;7.30;99.90;;;7.23;73.25;93416.41;5078368;28;20471;-59
2022/01/10 01:09:29;;;;;;;7.80;6.37;;;7.30;99.90;;;7.20;73.57;93414.09;5079811;28;20450;-59
2022/01/10 01:12:16;;;;;;;12.40;5.70;;;7.30;99.90;;;7.17;73.68;93412.63;5070643;28;20474;-62
2022/01/10 01:14:55;;;;;;;8.80;6.07;;;7.30;99.90;;;7.19;74.31;93412.47;5078708;28;20978;-59
2022/01/10 01:17:46;;;;;;;8.97;5.10;;;7.20;99.90;;;7.20;73.44;93408.03;5082736;28;20449;-58
2022/01/10 01:20:42;;;;;;;9.27;4.60;;;7.30;99.90;;;7.18;74.41;93406.41;5080392;28;21015;-62
2022/01/10 01:25:58;;;;;;;6.90;5.10;;;7.30;99.90;;;7.15;73.87;93398.88;5073679;28;20973;-62
2022/01/10 01:28:25;;;;;;;12.40;7.20;;;7.20;99.90;;;7.12;74.83;93399.19;5075806;28;20443;-59
2022/01/10 01:30:53;;;;;;;15.00;7.30;;;7.20;99.90;;;7.11;75.22;93399.34;5076085;28;20474;-63
2022/01/10 01:33:20;;;;;;;15.43;7.63;;;7.20;99.90;;;7.10;74.71;93395.09;5077677;28;20768;-63
2022/01/10 01:35:47;;;;;;;7.50;6.13;;;7.20;99.90;;;7.11;74.56;93391.50;5077393;28;20467;-62
2022/01/10 01:38:16;;;;;;;5.83;4.57;;;7.20;99.90;;;7.12;74.33;93391.34;5073297;28;20955;-58
2022/01/10 01:40:49;;;;;;;6.40;5.57;;;7.20;99.90;;;7.12;73.61;93396.56;5072029;28;20459;-58
2022/01/10 01:43:17;;;;;;;5.57;3.87;;;7.20;99.90;;;7.07;74.17;93388.38;5077542;28;20573;-57
2022/01/10 01:45:45;;;;;;;9.97;4.47;;;7.20;99.90;;;7.02;74.28;93395.88;5076020;28;20477;-58
2022/01/10 01:48:13;;;;;;;8.67;5.10;;;7.10;99.90;;;6.97;74.66;93382.44;5078520;28;20450;-58
2022/01/10 01:50:40;;;;;;;12.30;8.50;;;7.10;99.90;;;6.97;75.14;93379.81;5074901;28;20498;-63
2022/01/10 01:53:08;;;;;;;12.40;8.13;;;7.10;99.90;;;6.96;76.41;93386.03;5077647;28;20455;-62
2022/01/10 01:55:37;;;;;;;16.37;8.80;;;7.10;99.90;;;6.92;76.05;93382.06;5074209;28;21135;-59
2022/01/10 01:58:04;;;;;;;12.30;8.70;;;7.00;99.90;;;6.86;76.38;93386.13;5071728;28;20451;-60
2022/01/10 02:00:31;;;;;;;10.83;8.37;;;7.00;99.90;;;6.81;76.38;93383.16;5077835;28;20471;-63
2022/01/10 02:02:59;;;;;;;12.83;8.27;;;6.90;99.90;;;6.76;76.52;93378.38;5071155;28;20571;-58
2022/01/10 02:05:26;;;;;;;12.00;7.50;;;6.90;99.90;;;6.72;75.66;93376.25;5081606;28;20470;-63
2022/01/10 02:07:53;;;;;;;10.27;7.20;;;6.80;99.90;;;6.62;76.13;93377.16;5082945;28;20458;-60
2022/01/10 02:10:21;;;;;;;12.83;8.53;;;6.80;99.90;;;6.56;76.02;93376.97;5075524;28;20470;-58
2022/01/10 02:12:49;;;;;;;11.90;6.30;;;6.70;99.90;;;6.52;75.77;93375.59;5077053;28;20512;-63
2022/01/10 02:15:46;;;;;;;12.10;7.67;;;6.60;99.90;;;6.45;76.57;93371.00;5077661;28;20474;-63
2022/01/10 02:18:14;;;;;;;13.00;7.77;;;6.60;99.90;;;6.43;76.05;93379.97;5072358;28;21003;-59
2022/01/10 02:20:43;;;;;;;8.60;6.03;;;6.50;99.90;;;6.41;76.04;93377.50;5075405;28;20467;-59
2022/01/10 02:23:10;;;;;;;11.23;6.97;;;6.50;99.90;;;6.39;76.28;93376.81;5075462;28;20570;-64
2022/01/10 02:25:38;;;;;;;8.93;6.73;;;6.50;99.90;;;6.33;76.46;93377.44;5073522;28;20496;-58
2022/01/10 02:28:05;;;;;;;9.80;5.60;;;6.50;99.90;;;6.30;75.68;93379.53;5075400;28;20446;-59
2022/01/10 02:30:32;;;;;;;6.60;5.70;;;6.40;99.90;;;6.25;75.97;93374.75;5076822;28;20478;-64
2022/01/10 02:33:01;;;;;;;8.77;5.27;;;6.40;99.90;;;6.21;75.95;93379.47;5073506;28;20459;-63
2022/01/10 02:35:31;;;;;;;5.47;4.97;;;6.40;99.90;;;6.18;76.21;93382.38;5078022;28;20482;-62
2022/01/10 02:38:00;;;;;;;6.10;5.30;;;6.30;99.90;;;6.12;76.56;93369.94;5073856;28;21010;-63
2022/01/10 02:40:30;;;;;;;7.07;5.87;;;6.30;99.90;;;6.07;76.53;93375.59;5077767;28;20532;-63
2022/01/10 02:42:57;;;;;;;9.20;5.60;;;6.20;99.90;;;6.03;76.89;93374.25;5073324;28;20493;-59
2022/01/10 02:45:25;;;;;;;6.47;5.87;;;6.20;99.90;;;6.00;77.12;93379.75;5072073;28;20474;-62
2022/01/10 02:47:52;;;;;;;6.40;5.10;;;6.10;99.90;;;5.98;77.16;93381.72;5079463;28;20462;-59
2022/01/10 02:50:20;;;;;;;7.63;5.60;;;6.10;99.90;;;5.95;77.23;93384.59;5073605;28;20470;-63
2022/01/10 02:52:47;;;;;;;8.03;5.33;;;6.10;99.90;;;5.91;77.52;93378.00;5079209;28;21047;-58
2022/01/10 02:55:16;;;;;;;7.37;5.20;;;6.00;99.90;;;5.89;77.56;93379.97;5074268;28;20474;-63
2022/01/10 02:57:44;;;;;;;6.53;5.23;;;6.00;99.90;;;5.86;77.56;93381.06;5077842;28;20450;-58
2022/01/10 03:00:14;;;;;;;5.43;4.77;;;6.00;99.90;;;5.85;77.51;93376.00;5075537;28;20554;-63
2022/01/10 03:02:42;;;;;;;6.00;5.40;;;6.00;99.90;;;5.82;77.39;93377.09;5072844;28;20497;-59
2022/01/10 03:05:11;;;;;;;5.67;5.17;;;5.90;99.90;;;5.81;77.54;93382.47;5074698;28;20481;-62
2022/01/10 03:07:38;;;;;;;8.10;5.40;;;5.90;99.90;;;5.82;77.00;93384.13;5072551;28;20451;-63
2022/01/10 03:10:07;;;;;;;5.70;5.10;;;5.90;99.90;;;5.81;77.23;93387.69;5075232;28;20478;-63
2022/01/10 03:12:35;;;;;;;4.20;3.80;;;5.90;99.90;;;5.79;77.23;93393.06;5076803;28;20464;-63
2022/01/10 03:15:04;;;;;;;8.37;4.37;;;5.90;99.90;;;5.79;77.10;93394.84;5072823;28;20471;-58
2022/01/10 03:17:31;;;;;;;6.40;5.60;;;5.90;99.90;;;5.79;76.95;93392.25;5077550;28;20458;-62
2022/01/10 03:19:59;;;;;;;6.93;5.47;;;5.90;99.90;;;5.80;77.42;93391.28;5075265;28;20467;-58
2022/01/10 03:22:27;;;;;;;4.93;4.53;;;5.90;99.90;;;5.80;77.33;93394.69;5073089;28;20485;-61
2022/01/10 03:24:54;;;;;;;5.00;4.60;;;5.90;99.90;;;5.83;76.96;93391.00;5075410;28;20482;-58
2022/01/10 03:27:22;;;;;;;7.67;5.20;;;6.00;99.90;;;5.84;76.72;93397.81;5076906;28;20442;-63
2022/01/10 03:29:50;;;;;;;4.47;4.07;;;6.00;99.90;;;5.86;76.78;93393.31;5076973;28;20526;-62
2022/01/10 03:32:18;;;;;;;4.77;4.37;;;6.00;99.90;;;5.90;76.44;93394.63;5076298;28;20458;-58
2022/01/10 03:34:45;;;;;;;4.33;3.93;;;6.00;99.90;;;5.87;76.00;93389.72;5080273;28;20455;-62
2022/01/10 03:37:12;;;;;;;4.33;3.10;;;6.00;99.90;;;5.88;76.06;93383.53;5081430;28;20538;-58
2022/01/10 03:39:40;;;;;;;3.30;3.07;;;6.00;99.90;;;5.86;76.34;93386.28;5074280;28;20462;-62
2022/01/10 03:42:07;;;;;;;3.60;3.30;;;6.00;99.90;;;5.86;75.86;93390.69;5075306;28;20447;-59
2022/01/10 03:44:34;;;;;;;4.33;4.03;;;6.00;99.90;;;5.82;76.53;93381.50;5077674;28;20451;-58
2022/01/10 03:47:05;;;;;;;4.70;4.30;;;5.90;99.90;;;5.81;76.44;93382.47;5079979;28;20516;-61
2022/01/10 03:49:33;;;;;;;15.27;10.57;;;5.90;99.90;;;5.82;76.69;93384.94;5086409;28;20493;-62
2022/01/10 03:52:00;;;;;;;15.00;9.43;;;5.90;99.90;;;5.84;76.07;93396.06;5077072;28;20474;-62
2022/01/10 03:54:27;;;;;;;13.77;8.60;;;6.00;99.90;;;5.86;76.41;93399.34;5075160;28;20455;-59
2022/01/10 03:56:54;;;;;;;8.63;5.33;;;6.00;99.90;;;5.90;76.13;93400.69;5077439;28;20462;-58
2022/01/10 03:59:22;;;;;;;7.43;5.57;;;6.00;99.90;;;5.95;75.91;93400.25;5078504;28;20465;-63
2022/01/10 04:01:51;;;;;;;6.30;4.10;;;6.10;99.90;;;5.99;76.04;93398.19;5082534;28;20576;-59
2022/01/10 04:04:19;;;;;;;4.00;3.60;;;6.10;99.90;;;6.03;75.45;93400.34;5076440;28;20481;-62
2022/01/10 04:06:47;;;;;;;3.70;3.40;;;6.20;99.90;;;6.06;75.27;93412.28;5073354;28;20489;-59
2022/01/10 04:09:14;;;;;;;4.47;3.60;;;6.20;99.90;;;6.05;75.04;93403.63;5077252;28;20451;-64
2022/01/10 04:11:41;;;;;;;3.43;3.03;;;6.20;99.90;;;6.06;75.12;93412.28;5078470;28;20481;-57
2022/01/10 04:14:09;;;;;;;2.80;2.60;;;6.20;99.90;;;6.08;74.53;93418.16;5078787;28;20659;-60
2022/01/10 04:16:36;;;;;;;2.70;2.50;;;6.20;99.90;;;6.07;74.48;93421.75;5076188;28;20471;-61
2022/01/10 04:19:03;;;;;;;3.40;3.13;;;6.20;99.90;;;6.03;74.43;93420.41;5075279;28;20446;-58
2022/01/10 04:21:32;;;;;;;2.83;2.63;;;6.20;99.90;;;6.04;74.54;93425.47;5082132;28;20466;-63
2022/01/10 04:23:59;;;;;;;3.50;3.30;;;6.20;99.90;;;6.06;74.60;93436.59;5072286;28;20482;-59
2022/01/10 04:26:26;;;;;;;2.70;2.37;;;6.20;99.90;;;6.08;74.64;93445.09;5078414;28;20784;-62
2022/01/10 04:28:54;;;;;;;2.57;2.37;;;6.20;99.90;;;6.10;74.18;93443.16;5075281;28;20443;-58
2022/01/10 04:31:21;;;;;;;4.77;2.90;;;6.20;99.90;;;6.09;74.23;93444.13;5077572;28;20488;-59
2022/01/10 04:33:48;;;;;;;2.90;2.50;;;6.20;99.90;;;6.05;73.36;93439.34;5078662;28;20455;-59
2022/01/10 04:36:15;;;;;;;2.57;2.37;;;6.20;99.90;;;5.98;73.39;93446.97;5079768;28;20507;-58
2022/01/10 04:38:44;;;;;;;2.40;2.30;;;6.10;99.90;;;5.94;73.62;93442.97;5076185;28;20446;-63
2022/01/10 04:41:11;;;;;;;2.17;2.07;;;6.10;99.90;;;5.92;73.20;93452.72;5078472;28;20478;-62
2022/01/10 04:43:39;;;;;;;3.53;2.20;;;6.10;99.90;;;5.89;73.12;93447.81;5076682;28;21079;-64
2022/01/10 04:46:06;;;;;;;2.30;2.20;;;6.00;99.90;;;5.86;72.93;93454.13;5076872;28;20486;-63
2022/01/10 04:48:34;;;;;;;2.53;2.33;;;6.00;99.90;;;5.81;72.41;93452.91;5079093;28;20450;-60
2022/01/10 04:51:15;;;;;;;5.70;2.07;;;5.90;99.90;;;5.79;75.26;93460.06;5079250;28;20502;-58
2022/01/10 04:53:45;;;;;;;2.10;2.00;;;5.90;99.90;;;5.85;74.40;93459.50;5076176;28;20458;-59
2022/01/10 04:56:14;;;;;;;1.97;1.77;;;5.90;99.90;;;5.88;74.56;93459.19;5073695;28;21033;-61
2022/01/10 04:58:42;;;;;;;2.07;1.97;;;6.00;99.90;;;5.92;74.12;93460.56;5077045;28;20453;-61
2022/01/10 05:01:09;;;;;;;2.50;1.60;;;6.00;99.90;;;5.94;74.23;93458.63;5076638;28;20477;-60
2022/01/10 05:03:37;;;;;;;3.20;1.73;;;6.10;99.90;;;5.97;74.28;93458.34;5076264;28;20490;-60
2022/01/10 05:06:04;;;;;;;2.60;2.40;;;6.10;99.90;;;6.01;73.15;93464.09;5078122;28;20791;-65
2022/01/10 05:08:31;;;;;;;5.90;1.93;;;6.10;99.90;;;5.96;72.93;93464.50;5074076;28;20454;-64
2022/01/10 05:11:00;;;;;;;2.40;2.20;;;6.10;99.90;;;5.93;72.79;93462.19;5079794;28;21017;-61
2022/01/10 05:13:28;;;;;;;1.73;1.50;;;6.10;99.90;;;5.87;72.70;93461.00;5077409;28;20459;-61
2022/01/10 05:15:55;;;;;;;2.60;2.20;;;6.00;99.90;;;5.89;73.65;93463.47;5074071;28;20492;-59
2022/01/10 05:18:23;;;;;;;4.13;1.83;;;6.00;99.90;;;5.93;74.02;93477.84;5075625;28;20508;-60
2022/01/10 05:20:50;;;;;;;2.20;2.10;;;6.00;99.90;;;5.94;73.22;93466.44;5077579;28;20921;-61
2022/01/10 05:23:18;;;;;;;1.83;1.73;;;6.10;99.90;;;5.97;73.11;93474.00;5074817;28;20481;-59
2022/01/10 05:25:46;;;;;;;2.50;1.83;;;6.10;99.90;;;5.99;73.07;93472.06;5075285;28;20477;-61
2022/01/10 05:28:17;;;;;;;5.90;2.20;;;6.10;99.90;;;5.99;72.79;93477.28;5073054;28;20451;-61
2022/01/10 05:30:44;;;;;;;6.17;2.50;;;6.10;99.90;;;5.97;72.81;93474.00;5073923;28;20477;-59
2022/01/10 05:33:13;;;;;;;4.40;2.67;;;6.10;99.90;;;5.94;72.32;93476.88;5073671;28;20839;-59
2022/01/10 05:35:40;;;;;;;2.07;1.97;;;6.10;99.90;;;5.91;72.34;93479.78;5073036;28;20474;-59
2022/01/10 05:38:08;;;;;;;2.73;2.63;;;6.10;99.90;;;5.90;72.76;93489.41;5073067;28;20831;-59
2022/01/10 05:40:35;;;;;;;3.10;2.90;;;6.00;99.90;;;5.89;72.74;93487.75;5074133;28;20478;-61
2022/01/10 05:43:03;;;;;;;2.87;2.77;;;6.00;99.90;;;5.88;72.50;93488.72;5076738;28;20454;-60
2022/01/10 05:45:31;;;;;;;2.70;2.60;;;6.00;99.90;;;5.87;72.76;93488.84;5077183;28;20485;-59
2022/01/10 05:48:07;;;;;;;4.07;2.90;;;6.00;99.90;;;5.86;73.16;93487.25;5077145;28;20481;-60
2022/01/10 05:50:35;;;;;;;4.60;3.77;;;6.00;99.90;;;5.86;72.98;93492.44;5076258;28;20470;-62
2022/01/10 05:53:03;;;;;;;4.57;4.13;;;6.00;99.90;;;5.86;73.75;93492.44;5076412;28;20477;-61
2022/01/10 05:55:30;;;;;;;9.43;5.10;;;6.00;99.90;;;5.85;73.36;93490.81;5074037;28;20475;-61
2022/01/10 05:57:58;;;;;;;11.60;4.80;;;6.00;99.90;;;5.84;73.07;93494.38;5078854;28;20947;-61
2022/01/10 06:00:25;;;;;;;6.13;4.67;;;6.00;99.90;;;5.79;72.91;93496.59;5074663;28;20474;-59
2022/01/10 06:02:54;;;;;;;4.57;4.20;;;6.00;99.90;;;5.75;73.12;93507.31;5076943;28;20463;-59
2022/01/10 06:05:21;;;;;;;5.10;4.70;;;5.90;99.90;;;5.70;72.70;93509.56;5075129;28;20853;-60
2022/01/10 06:07:48;;;;;;;5.80;4.40;;;5.90;99.90;;;5.67;73.15;93501.16;5076216;28;20453;-59
2022/01/10 06:10:16;;;;;;;7.70;6.53;;;5.80;99.90;;;5.67;73.56;93502.00;5075841;28;20475;-61
2022/01/10 06:12:43;;;;;;;12.03;7.20;;;5.80;99.90;;;5.66;74.04;93508.19;5077393;28;20461;-59
2022/01/10 06:15:11;;;;;;;6.23;5.57;;;5.80;99.90;;;5.64;73.95;93504.91;5074347;28;20474;-60
2022/01/10 06:17:38;;;;;;;5.77;5.23;;;5.80;99.90;;;5.64;73.76;93510.13;5074130;28;20453;-61
2022/01/10 06:20:08;;;;;;;5.20;4.80;;;5.80;99.90;;;5.65;74.63;93521.38;5074677;28;20499;-60
2022/01/10 06:22:36;;;;;;;5.53;5.00;;;5.80;99.90;;;5.63;74.29;93518.91;5076963;28;20450;-60
2022/01/10 06:25:03;;;;;;;5.23;4.80;;;5.80;99.90;;;5.63;73.49;93524.13;5070956;28;20498;-60
2022/01/10 06:27:30;;;;;;;5.47;4.60;;;5.80;99.90;;;5.59;74.08;93522.75;5070335;28;20496;-59
2022/01/10 06:29:58;;;;;;;5.93;5.33;;;5.70;99.90;;;5.61;73.74;93533.88;5073877;28;20962;-61
2022/01/10 06:32:25;;;;;;;5.33;4.80;;;5.70;99.90;;;5.63;74.13;93529.34;5074461;28;20814;-60
2022/01/10 06:34:52;;;;;;;7.47;5.67;;;5.80;99.90;;;5.65;74.62;93524.78;5076192;28;20989;-60
2022/01/10 06:37:21;;;;;;;5.60;5.10;;;5.80;99.90;;;5.69;73.97;93531.38;5075790;28;20451;-60
2022/01/10 06:39:49;;;;;;;7.53;5.03;;;5.80;99.90;;;5.68;74.14;93532.34;5077575;28;20451;-59
2022/01/10 06:42:16;;;;;;;9.13;5.87;;;5.80;99.90;;;5.67;73.85;93532.47;5075133;28;20461;-61
2022/01/10 06:44:43;;;;;;;6.27;5.40;;;5.80;99.90;;;5.68;74.11;93532.34;5076073;28;20487;-61
2022/01/10 06:47:10;;;;;;;11.93;6.40;;;5.90;99.90;;;5.69;74.07;93535.78;5071344;28;20520;-61
2022/01/10 06:49:38;;;;;;;6.33;5.50;;;5.80;99.90;;;5.69;73.87;93530.56;5075840;28;20931;-59
2022/01/10 06:52:06;;;;;;;14.83;10.03;;;5.80;99.90;;;5.72;74.09;93532.88;5072973;28;20461;-62
2022/01/10 06:54:37;;;;;;;17.47;11.00;;;5.90;99.90;;;5.75;74.34;93537.81;5076669;28;20459;-62
2022/01/10 06:57:05;;;;;;;7.73;6.37;;;5.90;99.90;;;5.74;74.19;93536.97;5071867;28;20434;-60
2022/01/10 06:59:32;;;;;;;14.83;8.47;;;5.90;99.90;;;5.73;73.87;93537.97;5077228;28;20445;-61
2022/01/10 07:01:59;;;;;;;10.90;7.13;;;5.90;99.90;;;5.73;74.21;93543.19;5077565;28;20473;-62
2022/01/10 07:04:27;;;;;;;7.77;6.53;;;5.90;99.90;;;5.75;74.17;93543.03;5073465;28;20485;-62
2022/01/10 07:06:55;;;;;;;9.67;7.50;;;5.90;99.90;;;5.77;74.14;93550.72;5080147;28;20475;-62
2022/01/10 07:09:22;;;;;;;9.73;7.97;;;5.90;99.90;;;5.76;73.97;93544.66;5081712;28;20457;-61
2022/01/10 07:11:51;;;;;;;11.87;7.90;;;5.90;99.90;;;5.81;74.29;93552.06;5085288;28;20853;-60
2022/01/10 07:14:18;;;;;;;11.30;6.73;;;5.90;99.90;;;5.83;74.26;93553.56;5077023;28;21008;-63
2022/01/10 07:16:48;;;;;;;5.93;5.30;;;5.90;99.90;;;5.86;74.02;93555.88;5079216;28;20581;-60
2022/01/10 07:19:16;;;;;;;6.40;5.80;;;6.00;99.90;;;5.90;74.29;93566.84;5075625;28;20442;-60
2022/01/10 07:21:43;;;;;;;7.70;5.60;;;6.00;99.90;;;5.91;73.44;93569.31;5079764;28;20470;-59
2022/01/10 07:24:10;;;;;;;6.73;5.37;;;6.00;99.90;;;5.92;73.31;93567.56;5076936;28;20490;-59
2022/01/10 07:26:38;;;;;;;9.73;7.50;;;6.00;99.90;;;5.92;73.41;93570.97;5076096;28;20490;-63
2022/01/10 07:29:07;;;;;;;11.33;7.30;;;6.10;99.90;;;5.96;73.38;93570.69;5078554;28;20491;-62
2022/01/10 07:31:35;;;;;;;8.97;7.37;;;6.10;99.90;;;5.94;73.66;93557.78;5080311;28;20478;-61
2022/01/10 07:34:02;;;;;;;10.87;6.93;;;6.10;99.90;;;5.93;73.97;93569.16;5074426;28;20463;-61
2022/01/10 07:36:30;;;;;;;9.73;7.37;;;6.10;99.90;;;5.92;73.83;93576.19;5075952;28;20481;-59
2022/01/10 07:38:57;;;;;;;11.60;8.60;;;6.10;99.90;;;5.94;73.77;93581.25;5074348;28;20508;-59
2022/01/10 07:41:24;;;;;;;13.27;8.03;;;6.10;99.90;;;5.96;73.95;93589.75;5078150;28;20844;-60
2022/01/10 07:43:51;;;;;;;17.33;9.63;;;6.10;99.90;;;5.98;74.99;93595.72;5078085;28;20619;-61
2022/01/10 07:46:20;;;;;;;12.60;7.50;;;6.10;99.90;;;6.00;73.81;93595.56;5077247;28;20490;-60
2022/01/10 07:48:47;;;;;;;14.70;8.77;;;6.10;99.90;;;5.98;73.58;93594.88;5080215;28;20575;-60
2022/01/10 07:51:15;;;;;;;14.10;9.10;;;6.10;99.90;;;5.97;73.95;93591.44;5080129;28;20519;-58
2022/01/10 07:53:42;;;;;;;16.23;8.60;;;6.10;99.90;;;5.97;73.78;93588.84;5076341;28;20462;-59
2022/01/10 07:56:10;;;;;;;9.73;6.80;;;6.10;99.90;;;5.97;73.01;93594.06;5075985;28;21045;-62
2022/01/10 07:58:37;;;;;;;8.40;6.47;;;6.10;99.90;;;5.98;73.17;93594.88;5078020;28;20507;-60
2022/01/10 08:01:05;;;;;;;8.47;6.13;;;6.10;99.90;;;5.94;72.98;93583.88;5076131;28;20479;-60
2022/01/10 08:03:33;;;;;;;9.37;6.70;;;6.10;99.90;;;5.93;73.00;93593.50;5074041;28;20493;-59
2022/01/10 08:06:01;;;;;;;8.00;5.90;;;6.10;99.90;;;5.93;72.88;93590.88;5080758;28;20515;-60
2022/01/10 08:08:28;;;;;;;7.40;5.90;;;6.10;99.90;;;5.93;72.21;93605.72;5077737;28;20442;-62
2022/01/10 08:10:55;;;;;;;5.83;5.27;;;6.10;99.90;;;5.89;71.96;93604.38;5077665;28;20466;-58
2022/01/10 08:13:23;;;;;;;7.47;5.20;;;6.10;99.90;;;5.89;72.36;93599.16;5079220;28;20458;-61
2022/01/10 08:15:51;;;;;;;6.57;5.87;;;6.00;99.90;;;5.86;71.61;93596.81;5079561;28;20498;-59
2022/01/10 08:18:18;;;;;;;8.90;6.00;;;6.00;99.90;;;5.85;72.19;93600.38;5078003;28;20935;-61
2022/01/10 08:20:47;;;;;;;8.53;7.27;;;6.00;99.90;;;5.86;72.19;93596.81;5080873;28;20469;-60
2022/01/10 08:23:14;;;;;;;8.40;6.20;;;6.00;99.90;;;5.85;71.54;93600.38;5077864;28;20939;-61
2022/01/10 08:25:42;;;;;;;14.37;8.13;;;6.00;99.80;;;5.84;70.74;93602.19;5072510;28;20505;-59
2022/01/10 08:28:09;;;;;;;12.13;7.30;;;6.00;99.40;;;5.82;71.19;93598.06;5076305;28;20448;-59
2022/01/10 08:30:36;;;;;;;12.70;7.70;;;6.00;99.60;;;5.79;71.25;93603.56;5077487;28;20474;-63
2022/01/10 08:33:04;;;;;;;17.00;8.43;;;5.90;99.40;;;5.77;71.62;93603.72;5079818;28;20442;-60
2022/01/10 08:35:31;;;;;;;16.77;8.17;;;5.90;99.60;;;5.79;71.43;93611.38;5079931;28;20475;-61
2022/01/10 08:38:00;;;;;;;269.40;29.30;;;5.90;99.60;;;5.80;71.77;93608.63;5078130;28;20530;-62
2022/01/10 08:40:28;;;;;;;9.77;6.80;;;5.90;99.90;;;5.82;71.28;93613.72;5075869;28;20466;-60
2022/01/10 08:42:55;;;;;;;312.60;31.90;;;6.00;99.90;;;5.86;71.70;93610.69;5077495;28;20448;-60
2022/01/10 08:45:22;;;;;;;24.57;6.90;;;6.00;99.90;;;5.87;71.35;93616.72;5076818;28;20493;-60
2022/01/10 08:47:50;;;;;;;49.77;8.90;;;6.00;99.50;;;5.89;71.26;93617.41;5075463;28;20442;-59
2022/01/10 08:50:17;;;;;;;7.03;5.10;;;6.00;99.70;;;5.87;70.42;93616.72;5078754;28;21032;-61
2022/01/10 08:52:44;;;;;;;5.87;4.30;;;6.00;98.60;;;5.82;70.46;93622.34;5078171;28;20478;-61
2022/01/10 08:55:13;;;;;;;3.80;3.00;;;6.00;98.50;;;5.77;69.49;93615.94;5080244;28;20473;-62
2022/01/10 08:57:40;;;;;;;3.63;3.37;;;5.90;98.40;;;5.70;69.64;93629.56;5078048;28;20450;-60
2022/01/10 09:00:10;;;;;;;5.73;3.90;;;5.80;98.40;;;5.66;69.82;93624.75;5077375;28;20471;-63
2022/01/10 09:02:37;;;;;;;3.60;3.30;;;5.80;98.40;;;5.62;70.73;93625.97;5077314;28;20943;-59
2022/01/10 09:05:08;;;;;;;3.30;3.00;;;5.80;98.90;;;5.61;70.54;93624.34;5078656;28;20490;-60
2022/01/10 09:07:35;;;;;;;3.47;3.17;;;5.80;99.00;;;5.60;70.88;93628.72;5083120;28;20434;-60
2022/01/10 09:10:02;;;;;;;5.60;3.50;;;5.80;99.10;;;5.61;70.81;93633.00;5079967;28;20497;-61
2022/01/10 09:12:31;;;;;;;4.00;3.70;;;5.80;99.20;;;5.62;70.44;93628.59;5078652;28;20461;-65
2022/01/10 09:14:58;;;;;;;5.63;3.53;;;5.70;99.00;;;5.62;70.75;93628.59;5074428;28;20541;-63
2022/01/10 09:17:25;;;;;;;11.07;4.40;;;5.80;99.20;;;5.62;71.21;93618.97;5076568;28;20805;-63
2022/01/10 09:19:53;;;;;;;601.93;69.00;;;5.80;99.30;;;5.64;71.25;93622.28;5076529;28;20937;-63
2022/01/10 09:22:21;;;;;;;150.63;14.80;;;5.80;99.40;;;5.63;71.02;93619.81;5078266;28;20447;-61
2022/01/10 09:24:48;;;;;;;11.80;5.30;;;5.80;99.20;;;5.63;70.65;93617.22;5078662;28;20482;-58
2022/01/10 09:27:16;;;;;;;4.30;3.90;;;5.80;99.10;;;5.60;71.19;93618.31;5075473;28;20449;-59
2022/01/10 09:29:46;;;;;;;5.17;4.23;;;5.80;99.30;;;5.62;70.91;93623.38;5081190;28;20565;-59
2022/01/10 09:32:14;;;;;;;7.50;4.67;;;5.80;99.30;;;5.64;71.07;93619.69;5076161;28;20545;-62
2022/01/10 09:34:41;;;;;;;4.63;4.03;;;5.80;99.40;;;5.68;70.69;93615.00;5077085;28;20454;-63
2022/01/10 09:37:08;;;;;;;6.20;3.50;;;5.80;99.40;;;5.68;70.26;93628.84;5079145;28;20438;-59
2022/01/10 09:39:36;;;;;;;4.03;3.57;;;5.80;99.00;;;5.71;70.60;93625.16;5077777;28;20450;-62
2022/01/10 09:42:04;;;;;;;5.20;3.60;;;5.90;99.00;;;5.71;70.62;93612.91;5075934;28;20455;-60
2022/01/10 09:44:34;;;;;;;3.37;3.07;;;5.80;98.90;;;5.73;70.38;93620.59;5078547;28;20501;-63
2022/01/10 09:47:02;;;;;;;4.77;4.30;;;5.90;98.70;;;5.72;70.43;93619.78;5074162;28;20459;-60
2022/01/10 09:49:30;;;;;;;4.10;3.70;;;5.90;98.90;;;5.74;70.05;93615.25;5075806;28;20447;-63
2022/01/10 09:51:57;;;;;;;6.60;3.57;;;5.90;98.50;;;5.72;69.76;93622.41;5076609;28;20477;-62
2022/01/10 09:54:24;;;;;;;5.90;4.63;;;5.90;98.40;;;5.71;70.30;93619.94;5074723;28;20955;-60
2022/01/10 09:56:52;;;;;;;6.30;3.97;;;5.90;98.40;;;5.69;69.78;93612.25;5073434;28;20463;-61
2022/01/10 09:59:19;;;;;;;7.33;4.77;;;5.90;98.40;;;5.69;70.01;93627.88;5073303;28;20455;-62
2022/01/10 10:01:49;;;;;;;4.63;4.00;;;5.80;98.40;;;5.72;69.89;93626.81;5074255;28;20485;-62
2022/01/10 10:04:19;;;;;;;5.73;4.40;;;5.90;98.50;;;5.72;70.02;93622.41;5078073;28;20962;-60
2022/01/10 10:06:46;;;;;;;25.70;5.70;;;5.80;98.40;;;5.74;70.06;93624.84;5077791;28;20475;-60
2022/01/10 10:09:13;;;;;;;5.93;4.70;;;5.90;98.60;;;5.77;70.16;93628.97;5078940;28;20477;-62
2022/01/10 10:11:43;;;;;;;14.90;4.60;;;5.90;98.50;;;5.80;70.15;93629.50;5081090;28;20502;-61
2022/01/10 10:14:11;;;;;;;5.50;4.33;;;5.90;98.50;;;5.83;69.97;93625.81;5077443;28;20455;-60
2022/01/10 10:16:41;;;;;;;84.50;8.00;;;6.00;98.50;;;5.83;69.74;93629.22;5079091;28;20480;-64
2022/01/10 10:19:09;;;;;;;7.20;4.40;;;6.00;98.50;;;5.85;69.95;93621.25;5081486;28;20529;-60
2022/01/10 10:21:38;;;;;;;399.37;31.40;;;6.00;98.50;;;5.87;70.66;93634.97;5078404;28;20477;-60
2022/01/10 10:24:10;;;;;;;32.13;7.07;;;6.00;99.10;;;5.92;71.22;93630.19;5075733;28;20806;-63
2022/01/10 10:26:37;;;;;;;8.73;5.63;;;6.00;99.70;;;5.98;71.27;93627.03;5085851;28;21066;-61
2022/01/10 10:29:04;;;;;;;7.63;5.57;;;6.10;99.50;;;6.04;71.11;93626.47;5074083;28;20504;-61
2022/01/10 10:31:33;;;;;;;9.50;6.30;;;6.10;99.60;;;6.12;71.83;93628.34;5074243;28;20493;-60
2022/01/10 10:34:03;;;;;;;13.97;6.40;;;6.20;99.90;;;6.19;71.01;93628.59;5075960;28;20971;-61
2022/01/10 10:36:32;;;;;;;8.23;6.13;;;6.30;99.80;;;6.20;70.77;93625.84;5075508;28;20867;-59